宮古島の過去48時間の天気

宮古島 (Miyako)

現在時刻: 9/23 09:17 JST (9/23 00:17 UTC) 以下の時間は現地時間です。

過去48時間のMETAR気象情報
時間 風向 風速(m/s) 視程 気温(℃) 湿度(%) 気圧(hPa) 天気現象
23 09:00 北東 3 10km以上 30 79 1015
23 08:00 北東 2 10km以上 28 89 1015
23 07:00 1 10km以上 25 100 1014
23 06:30 東北東 1 10km以上 25 94 1014
22 20:00 東北東 2 10km以上 27 89 1013
22 19:00 北北東 2 10km以上 27 89 1012
22 18:00 東北東 2 10km以上 29 79 1012
22 17:00 2 10km以上 30 75 1011 弱いしゅう雨
22 16:00 不定 2 10km以上 29 84 1011
22 15:27 2 10km以上 28 89 1011 弱いしゅう雨
22 15:04 東北東 3 10km以上 28 89 1011 しゅう雨
22 15:00 東北東 3 10km以上 29 84 1011 弱いしゅう雨
22 14:00 東北東 2 10km以上 30 75 1011 弱いしゅう雨
22 13:00 西 3 10km以上 31 75 1012 弱いしゅう雨
22 12:00 西南西 3 10km以上 32 63 1012
22 11:00 西南西 2 10km以上 31 75 1013 周辺でしゅう雨
22 10:00 西 3 10km以上 31 75 1012 周辺でしゅう雨
22 09:00 西 3 10km以上 28 84 1012 周辺でしゅう雨
22 08:00 南西 2 10km以上 29 84 1011 周辺でしゅう雨
22 07:00 南南西 1 10km以上 26 94 1011
22 06:30 2 10km以上 26 94 1011 周辺でしゅう雨
21 20:00 不定 1 10km以上 28 89 1010
21 19:00 不定 1 10km以上 28 84 1009
21 18:00 不定 1 10km以上 29 74 1009
21 17:00 北北西 3 10km以上 30 75 1009
21 16:00 北西 3 10km以上 30 79 1009 周辺でしゅう雨
21 15:00 北西 3 10km以上 32 71 1009 弱いしゅう雨
21 14:00 北北西 3 10km以上 32 75 1010 弱い雷雨
21 13:00 北西 4 10km以上 31 75 1010 弱いしゅう雨
21 12:00 西南西 4 10km以上 31 75 1010 周辺でしゅう雨
21 11:00 西南西 3 10km以上 31 75 1011 周辺でしゅう雨
21 10:00 南西 4 10km以上 31 75 1011
ROMY 230000Z 05006KT 020V090 9999 FEW017 30/26 Q1015
ROMY 222300Z 05003KT 9999 FEW015 28/26 Q1015
ROMY 222200Z 01001KT 9999 FEW015 25/25 Q1014
ROMY 222130Z 06001KT 9999 FEW015 25/24 Q1014
ROMY 221100Z 07003KT 020V120 9999 FEW021 27/25 Q1013
ROMY 221000Z 03003KT 9999 FEW021 27/25 Q1012
ROMY 220900Z 07004KT 9999 FEW021 29/25 Q1012
ROMY 220800Z 08004KT 9999 -SHRA SCT021 30/25 Q1011
ROMY 220700Z VRB04KT 9999 SCT021 29/26 Q1011
ROMY 220627Z 08004KT 060V120 9999 -SHRA BKN022 FEW025TCU 28/26 Q1011 RMK 5CU022 1TCU025 A2987 TCU 3KM S STNR
ROMY 220604Z 07005KT 9999 SHRA BKN022 FEW025TCU 28/26 Q1011 RMK 5CU022 2TCU025 A2987 TCU OHD STNR
ROMY 220600Z 07005KT 9999 -SHRA SCT022 FEW025TCU 29/26 Q1011
ROMY 220500Z 06003KT 030V120 9999 -SHRA SCT021 FEW025TCU 30/25 Q1011
ROMY 220400Z 28005KT 220V360 9999 -SHRA SCT025 FEW030TCU 31/26 Q1012
ROMY 220300Z 25005KT 210V310 9999 SCT020 32/24 Q1012
ROMY 220200Z 25004KT 210V290 9999 VCSH FEW020 FEW025TCU 31/26 Q1013
ROMY 220100Z 26005KT 230V300 9999 VCSH SCT018 FEW025TCU 31/26 Q1012
ROMY 220000Z 26006KT 230V310 9999 VCSH SCT017 28/25 Q1012
ROMY 212300Z 23003KT 9999 VCSH SCT017 FEW025TCU 29/26 Q1011
ROMY 212200Z 21001KT 9999 SCT016 26/25 Q1011
ROMY 212130Z 17003KT 9999 VCSH FEW018 26/25 Q1011
ROMY 211100Z VRB01KT 9999 SCT018 28/26 Q1010
ROMY 211000Z VRB02KT 9999 SCT020 28/25 Q1009
ROMY 210900Z VRB02KT 9999 FEW020 29/24 Q1009
ROMY 210800Z 34006KT 280V010 9999 SCT020 30/25 Q1009
ROMY 210700Z 32005KT 240V360 9999 VCSH SCT018 FEW020TCU 30/26 Q1009
ROMY 210600Z 32006KT 250V350 9999 -SHRA FEW016 FEW020CB 32/26 Q1009
ROMY 210500Z 33005KT 300V010 9999 -TSRA SCT016 FEW020CB 32/27 Q1010
ROMY 210400Z 31008KT 240V360 9999 -SHRA SCT016 FEW025TCU 31/26 Q1010
ROMY 210300Z 24007KT 210V280 9999 VCSH FEW017 31/26 Q1010
ROMY 210200Z 25006KT 220V280 9999 VCSH SCT017 31/26 Q1011
ROMY 210100Z 23007KT 190V260 9999 FEW016 31/26 Q1011